Time;durP1;ratioP1;P1;durP2;ratioP2;P2;SDS_P1;SDS_P2;PMS_P1;PMS_P2;Temp;Humidity;BMP_temperature;BMP_pressure;BME280_temperature;BME280_humidity;BME280_pressure;Samples;Min_cycle;Max_cycle;Signal;HPM_P1;HPM_P2
2022/07/08 00:00:40;;;;;;;21.80;8.90;;;;;;;;;;5012614;28;20044;-63
2022/07/08 00:03:06;;;;;;;18.83;8.10;;;;;;;;;;5012367;28;20055;-63
2022/07/08 00:05:32;;;;;;;19.35;8.25;;;;;;;;;;5011105;28;20105;-63
2022/07/08 00:07:58;;;;;;;18.17;8.50;;;;;;;;;;5012509;28;20456;-62
2022/07/08 00:10:24;;;;;;;15.55;7.65;;;;;;;;;;5012598;28;20022;-63
2022/07/08 00:12:51;;;;;;;17.75;7.85;;;;;;;;;;5013552;28;20037;-63
2022/07/08 00:15:17;;;;;;;15.95;7.45;;;;;;;;;;5027830;28;20064;-64
2022/07/08 00:17:43;;;;;;;16.58;8.07;;;;;;;;;;5021200;28;20494;-63
2022/07/08 00:20:09;;;;;;;19.40;7.82;;;;;;;;;;5013592;28;20056;-63
2022/07/08 00:22:35;;;;;;;20.65;8.15;;;;;;;;;;5012493;28;20069;-63
2022/07/08 00:25:02;;;;;;;16.30;7.75;;;;;;;;;;5012348;28;20030;-63
2022/07/08 00:27:28;;;;;;;16.95;7.75;;;;;;;;;;5012558;28;20026;-63
2022/07/08 00:29:54;;;;;;;20.23;8.10;;;;;;;;;;5012663;28;20375;-63
2022/07/08 00:32:20;;;;;;;20.70;8.93;;;;;;;;;;5012444;28;20054;-64
2022/07/08 00:34:46;;;;;;;18.73;8.05;;;;;;;;;;4994618;28;20553;-62
2022/07/08 00:37:12;;;;;;;20.75;8.23;;;;;;;;;;5012566;28;20026;-62
2022/07/08 00:39:38;;;;;;;17.83;7.97;;;;;;;;;;5012550;28;20479;-63
2022/07/08 00:42:05;;;;;;;15.43;7.32;;;;;;;;;;5012436;28;20113;-63
2022/07/08 00:44:31;;;;;;;17.15;7.97;;;;;;;;;;5012877;28;20026;-62
2022/07/08 00:46:57;;;;;;;16.95;8.00;;;;;;;;;;5016301;28;20505;-62
2022/07/08 00:49:23;;;;;;;17.38;8.05;;;;;;;;;;5015899;28;20037;-62
2022/07/08 00:51:49;;;;;;;16.20;7.90;;;;;;;;;;5016417;28;20022;-61
2022/07/08 00:54:17;;;;;;;16.80;7.30;;;;;;;;;;5016299;28;20045;-62
2022/07/08 00:56:43;;;;;;;17.20;7.90;;;;;;;;;;5016153;28;20029;-63
2022/07/08 00:59:09;;;;;;;19.42;7.75;;;;;;;;;;5015836;28;20037;-61
2022/07/08 01:01:36;;;;;;;19.95;8.32;;;;;;;;;;5015886;28;20080;-61
2022/07/08 01:04:02;;;;;;;18.30;7.82;;;;;;;;;;5016095;28;20057;-62
2022/07/08 01:06:28;;;;;;;23.45;7.95;;;;;;;;;;5016348;28;20104;-62
2022/07/08 01:08:55;;;;;;;18.75;8.15;;;;;;;;;;5015976;28;20030;-61
2022/07/08 01:11:21;;;;;;;18.90;7.53;;;;;;;;;;5015603;28;20034;-61
2022/07/08 01:13:47;;;;;;;16.65;7.90;;;;;;;;;;5015976;28;20068;-61
2022/07/08 01:16:13;;;;;;;18.08;7.82;;;;;;;;;;5016097;28;20049;-62
2022/07/08 01:18:40;;;;;;;18.92;7.60;;;;;;;;;;5015438;28;20022;-62
2022/07/08 01:21:06;;;;;;;15.63;7.50;;;;;;;;;;5015987;28;20476;-62
2022/07/08 01:23:32;;;;;;;18.50;7.43;;;;;;;;;;5016133;28;20030;-62
2022/07/08 01:25:59;;;;;;;16.73;7.22;;;;;;;;;;4998701;28;20080;-60
2022/07/08 01:28:25;;;;;;;18.88;7.43;;;;;;;;;;5015782;28;20029;-59
2022/07/08 01:30:51;;;;;;;18.27;7.35;;;;;;;;;;5015803;28;20517;-61
2022/07/08 01:33:17;;;;;;;17.85;7.60;;;;;;;;;;4998265;28;20033;-61
2022/07/08 01:35:43;;;;;;;17.38;7.55;;;;;;;;;;5015954;28;20026;-62
2022/07/08 01:38:09;;;;;;;16.98;7.38;;;;;;;;;;5015230;28;20024;-62
2022/07/08 01:40:35;;;;;;;17.08;8.00;;;;;;;;;;5015434;28;20105;-62
2022/07/08 01:43:01;;;;;;;21.83;7.53;;;;;;;;;;5015043;28;20076;-62
2022/07/08 01:45:27;;;;;;;16.25;7.45;;;;;;;;;;5015005;28;20109;-62
2022/07/08 01:47:53;;;;;;;19.08;7.20;;;;;;;;;;5015071;28;20112;-62
2022/07/08 01:50:20;;;;;;;19.48;7.05;;;;;;;;;;5015187;28;20025;-62
2022/07/08 01:52:46;;;;;;;16.90;7.78;;;;;;;;;;5014722;28;20022;-62
2022/07/08 01:55:12;;;;;;;20.13;7.68;;;;;;;;;;5015174;28;20033;-62
2022/07/08 01:57:38;;;;;;;17.50;7.93;;;;;;;;;;5014475;28;20030;-62
2022/07/08 02:00:05;;;;;;;16.75;7.65;;;;;;;;;;5014910;28;20060;-62
2022/07/08 02:02:32;;;;;;;18.75;7.40;;;;;;;;;;5014845;28;20100;-63
2022/07/08 02:04:58;;;;;;;18.42;7.70;;;;;;;;;;5014940;28;20037;-61
2022/07/08 02:07:24;;;;;;;19.75;7.03;;;;;;;;;;5014968;28;20037;-62
2022/07/08 02:09:50;;;;;;;20.65;8.18;;;;;;;;;;4997834;28;20502;-62
2022/07/08 02:12:20;;;;;;;16.23;7.25;;;;;;;;;;5015163;28;20100;-62
2022/07/08 02:14:46;;;;;;;17.00;7.35;;;;;;;;;;5015295;28;20105;-62
2022/07/08 02:17:12;;;;;;;20.13;7.50;;;;;;;;;;5014878;28;20025;-61
2022/07/08 02:19:39;;;;;;;18.63;7.97;;;;;;;;;;5015207;28;20029;-62
2022/07/08 02:22:05;;;;;;;18.95;7.35;;;;;;;;;;5014882;28;20033;-60
2022/07/08 02:24:31;;;;;;;17.75;7.50;;;;;;;;;;5014769;28;20030;-61
2022/07/08 02:26:57;;;;;;;18.25;7.40;;;;;;;;;;5014563;28;20106;-61
2022/07/08 02:29:23;;;;;;;19.85;7.30;;;;;;;;;;5014102;28;20120;-60
2022/07/08 02:31:49;;;;;;;17.80;7.70;;;;;;;;;;5014801;28;20026;-62
2022/07/08 02:34:15;;;;;;;18.48;7.82;;;;;;;;;;5014247;28;20429;-64
2022/07/08 02:36:41;;;;;;;18.08;7.68;;;;;;;;;;5013493;28;20045;-62
2022/07/08 02:39:07;;;;;;;17.05;7.20;;;;;;;;;;5013806;28;20022;-63
2022/07/08 02:41:34;;;;;;;20.75;7.75;;;;;;;;;;5013916;28;20057;-62
2022/07/08 02:43:59;;;;;;;21.75;7.80;;;;;;;;;;5013963;28;20403;-63
2022/07/08 02:46:26;;;;;;;17.17;7.93;;;;;;;;;;5014406;28;20026;-63
2022/07/08 02:48:51;;;;;;;16.88;7.50;;;;;;;;;;5014125;28;20026;-64
2022/07/08 02:51:17;;;;;;;16.70;7.38;;;;;;;;;;5014245;28;20028;-63
2022/07/08 02:53:43;;;;;;;19.65;7.78;;;;;;;;;;4996535;28;20026;-61
2022/07/08 02:56:09;;;;;;;17.48;7.90;;;;;;;;;;4996019;28;20442;-63
2022/07/08 02:58:35;;;;;;;16.10;7.18;;;;;;;;;;5013425;28;20034;-62
2022/07/08 03:01:01;;;;;;;16.25;8.15;;;;;;;;;;4996072;28;20029;-62
2022/07/08 03:03:27;;;;;;;20.75;8.30;;;;;;;;;;5013826;28;20030;-64
2022/07/08 03:05:53;;;;;;;16.08;7.50;;;;;;;;;;5013716;28;20029;-61
2022/07/08 03:08:19;;;;;;;19.17;7.60;;;;;;;;;;5012407;28;20030;-63
2022/07/08 03:10:45;;;;;;;18.83;8.00;;;;;;;;;;5013572;28;20026;-63
2022/07/08 03:13:11;;;;;;;16.92;7.97;;;;;;;;;;5013345;28;20160;-62
2022/07/08 03:15:37;;;;;;;23.02;8.60;;;;;;;;;;5013598;28;20485;-64
2022/07/08 03:18:03;;;;;;;18.13;7.60;;;;;;;;;;5013207;28;20029;-64
2022/07/08 03:20:29;;;;;;;17.73;8.02;;;;;;;;;;5013540;28;20104;-63
2022/07/08 03:22:55;;;;;;;19.33;8.75;;;;;;;;;;5013509;28;20041;-63
2022/07/08 03:25:21;;;;;;;15.55;7.85;;;;;;;;;;4995868;28;20026;-62
2022/07/08 03:27:48;;;;;;;17.45;8.15;;;;;;;;;;5012954;28;20030;-63
2022/07/08 03:30:14;;;;;;;16.40;7.40;;;;;;;;;;4995534;28;20026;-63
2022/07/08 03:32:41;;;;;;;19.27;8.02;;;;;;;;;;5013632;28;20046;-63
2022/07/08 03:35:07;;;;;;;17.85;7.93;;;;;;;;;;5013348;28;20080;-63
2022/07/08 03:37:33;;;;;;;19.60;9.07;;;;;;;;;;4995297;28;20037;-64
2022/07/08 03:42:48;;;;;;;16.35;7.22;;;;;;;;;;5003051;28;20046;-62
2022/07/08 03:45:14;;;;;;;18.88;7.57;;;;;;;;;;5013618;28;20034;-63
2022/07/08 03:47:40;;;;;;;16.85;7.43;;;;;;;;;;5014416;28;20053;-61
2022/07/08 03:50:07;;;;;;;21.08;7.90;;;;;;;;;;5014016;28;20470;-63
2022/07/08 03:52:33;;;;;;;21.77;7.72;;;;;;;;;;5013892;28;20022;-62
2022/07/08 03:54:58;;;;;;;21.25;7.25;;;;;;;;;;5014905;28;20025;-63
2022/07/08 03:57:24;;;;;;;18.02;7.13;;;;;;;;;;4997863;28;20429;-61
2022/07/08 03:59:51;;;;;;;21.15;7.72;;;;;;;;;;5015967;28;20113;-63
2022/07/08 04:02:17;;;;;;;18.75;8.40;;;;;;;;;;5014321;28;20030;-63
2022/07/08 04:04:43;;;;;;;17.77;7.47;;;;;;;;;;5014885;28;20033;-63
2022/07/08 04:07:09;;;;;;;19.58;8.85;;;;;;;;;;5013367;28;20101;-61
2022/07/08 04:09:35;;;;;;;24.98;8.55;;;;;;;;;;5012991;28;20078;-63
2022/07/08 04:12:00;;;;;;;17.75;8.10;;;;;;;;;;5012873;28;20084;-63
2022/07/08 04:14:27;;;;;;;17.17;7.35;;;;;;;;;;5012670;28;20046;-61
2022/07/08 04:16:52;;;;;;;19.33;7.63;;;;;;;;;;5012959;28;20123;-63
2022/07/08 04:19:18;;;;;;;15.30;7.50;;;;;;;;;;5012126;28;20100;-63
2022/07/08 04:21:44;;;;;;;22.45;8.30;;;;;;;;;;5012526;28;20040;-61
2022/07/08 04:24:10;;;;;;;18.52;7.47;;;;;;;;;;5012605;28;20047;-63
2022/07/08 04:26:36;;;;;;;19.70;8.10;;;;;;;;;;5012789;28;20028;-64
2022/07/08 04:29:02;;;;;;;17.98;8.13;;;;;;;;;;5012295;28;20030;-64
2022/07/08 04:31:29;;;;;;;17.02;8.02;;;;;;;;;;5012503;28;20383;-63
2022/07/08 04:33:55;;;;;;;19.08;8.85;;;;;;;;;;5012919;28;20026;-62
2022/07/08 04:36:21;;;;;;;20.75;8.93;;;;;;;;;;5012397;28;20025;-64
2022/07/08 04:38:47;;;;;;;17.25;8.43;;;;;;;;;;5012106;28;20029;-63
2022/07/08 04:41:13;;;;;;;20.33;8.48;;;;;;;;;;4994771;28;20026;-61
2022/07/08 04:43:39;;;;;;;21.27;8.40;;;;;;;;;;4994904;28;20463;-60
2022/07/08 04:46:05;;;;;;;16.42;8.52;;;;;;;;;;4994650;28;20033;-64
2022/07/08 04:48:31;;;;;;;20.10;8.20;;;;;;;;;;5012184;28;20117;-64
2022/07/08 04:50:58;;;;;;;18.52;8.45;;;;;;;;;;5012022;28;20029;-61
2022/07/08 04:53:24;;;;;;;17.67;8.90;;;;;;;;;;5012396;28;20457;-61
2022/07/08 04:55:50;;;;;;;18.60;8.18;;;;;;;;;;5012173;28;20022;-63
2022/07/08 04:58:16;;;;;;;19.05;8.65;;;;;;;;;;4994398;28;20029;-63
2022/07/08 05:00:42;;;;;;;20.77;8.23;;;;;;;;;;4994646;28;20018;-62
2022/07/08 05:03:08;;;;;;;17.33;8.30;;;;;;;;;;5011991;28;20033;-62
2022/07/08 05:05:34;;;;;;;19.85;8.50;;;;;;;;;;5012030;28;20487;-63
2022/07/08 05:08:00;;;;;;;20.80;8.25;;;;;;;;;;5012019;28;20044;-65
2022/07/08 05:10:27;;;;;;;17.88;8.57;;;;;;;;;;4994447;28;20065;-62
2022/07/08 05:12:54;;;;;;;22.17;8.95;;;;;;;;;;5011802;28;20113;-59
2022/07/08 05:15:20;;;;;;;21.35;9.30;;;;;;;;;;5012392;28;20038;-62
2022/07/08 05:17:47;;;;;;;17.58;8.32;;;;;;;;;;5011558;28;20030;-62
2022/07/08 05:20:13;;;;;;;20.13;7.97;;;;;;;;;;5011682;28;20033;-61
2022/07/08 05:22:40;;;;;;;19.30;8.85;;;;;;;;;;5012366;28;20026;-62
2022/07/08 05:25:06;;;;;;;17.27;8.93;;;;;;;;;;5011709;28;20025;-62
2022/07/08 05:27:32;;;;;;;17.63;9.05;;;;;;;;;;5011218;28;20429;-62
2022/07/08 05:29:59;;;;;;;16.27;7.82;;;;;;;;;;5011370;28;20079;-62
2022/07/08 05:32:25;;;;;;;18.88;8.55;;;;;;;;;;5014383;28;20025;-59
2022/07/08 05:34:51;;;;;;;15.48;7.97;;;;;;;;;;5015308;28;20056;-62
2022/07/08 05:37:17;;;;;;;18.85;8.82;;;;;;;;;;5014984;28;20022;-61
2022/07/08 05:39:43;;;;;;;21.23;8.52;;;;;;;;;;5015536;28;20037;-62
2022/07/08 05:42:10;;;;;;;20.02;8.45;;;;;;;;;;5015399;28;20421;-63
2022/07/08 05:44:37;;;;;;;19.83;7.97;;;;;;;;;;5015168;28;20034;-61
2022/07/08 05:47:03;;;;;;;22.60;8.98;;;;;;;;;;5015125;28;20448;-61
2022/07/08 05:49:30;;;;;;;15.63;8.10;;;;;;;;;;5014669;28;20174;-61
2022/07/08 05:51:56;;;;;;;18.50;7.45;;;;;;;;;;4997110;28;20501;-59
2022/07/08 05:54:22;;;;;;;16.23;8.35;;;;;;;;;;5015120;28;20029;-60
2022/07/08 05:56:48;;;;;;;19.35;8.02;;;;;;;;;;4997957;28;20018;-62
2022/07/08 05:59:14;;;;;;;19.10;7.75;;;;;;;;;;5014857;28;20026;-61
2022/07/08 06:01:40;;;;;;;17.13;7.93;;;;;;;;;;5014322;28;20496;-61
2022/07/08 06:04:06;;;;;;;33.85;8.52;;;;;;;;;;5014379;28;20033;-62
2022/07/08 06:06:32;;;;;;;21.75;8.50;;;;;;;;;;5014904;28;20022;-62
2022/07/08 06:08:58;;;;;;;21.15;8.95;;;;;;;;;;5014319;28;20092;-61
2022/07/08 06:13:53;;;;;;;19.23;7.95;;;;;;;;;;5049790;22;20050;-62
2022/07/08 06:16:19;;;;;;;16.60;7.80;;;;;;;;;;5017139;28;20057;-61
2022/07/08 06:18:45;;;;;;;16.55;8.30;;;;;;;;;;5035054;28;20030;-60
2022/07/08 06:21:11;;;;;;;16.77;7.72;;;;;;;;;;5017846;28;20029;-61
2022/07/08 06:23:37;;;;;;;22.45;8.27;;;;;;;;;;5034038;28;20037;-60
2022/07/08 06:26:03;;;;;;;18.13;8.27;;;;;;;;;;5034117;28;20045;-59
2022/07/08 06:28:29;;;;;;;19.25;9.13;;;;;;;;;;5033608;28;20448;-61
2022/07/08 06:30:55;;;;;;;17.40;8.48;;;;;;;;;;5034079;28;20109;-60
2022/07/08 06:33:21;;;;;;;17.75;8.50;;;;;;;;;;5033641;28;20148;-61
2022/07/08 06:35:47;;;;;;;22.88;8.57;;;;;;;;;;5033819;28;20071;-61
2022/07/08 06:38:13;;;;;;;21.42;9.80;;;;;;;;;;5033979;28;20025;-62
2022/07/08 06:40:39;;;;;;;19.92;8.00;;;;;;;;;;5033598;28;20041;-61
2022/07/08 06:43:05;;;;;;;18.75;8.65;;;;;;;;;;5033471;28;20036;-61
2022/07/08 06:45:32;;;;;;;19.73;8.73;;;;;;;;;;5033794;28;20017;-60
2022/07/08 06:48:01;;;;;;;22.83;9.18;;;;;;;;;;5033655;28;20036;-61
2022/07/08 06:50:27;;;;;;;20.05;8.70;;;;;;;;;;5033542;28;20021;-61
2022/07/08 06:52:53;;;;;;;19.33;8.02;;;;;;;;;;5033599;28;20545;-62
2022/07/08 06:55:19;;;;;;;22.73;8.90;;;;;;;;;;5033230;28;20048;-60
2022/07/08 06:57:45;;;;;;;18.33;8.18;;;;;;;;;;5033213;28;20485;-61
2022/07/08 07:00:12;;;;;;;17.52;8.55;;;;;;;;;;5033296;28;20049;-60
2022/07/08 07:02:38;;;;;;;18.15;8.27;;;;;;;;;;5032997;28;20104;-60
2022/07/08 07:05:04;;;;;;;19.30;9.43;;;;;;;;;;5033312;28;20033;-60
2022/07/08 07:07:30;;;;;;;19.85;8.35;;;;;;;;;;5032978;28;20044;-60
2022/07/08 07:09:56;;;;;;;18.67;8.60;;;;;;;;;;5032770;28;20030;-60
2022/07/08 07:12:22;;;;;;;19.60;8.57;;;;;;;;;;5033268;28;20030;-59
2022/07/08 07:14:48;;;;;;;21.67;8.73;;;;;;;;;;5033253;28;20112;-60
2022/07/08 07:17:21;;;;;;;17.17;8.20;;;;;;;;;;5031026;28;20108;-61
2022/07/08 07:19:48;;;;;;;17.10;8.02;;;;;;;;;;5006125;28;20025;-60
2022/07/08 07:22:14;;;;;;;19.30;8.10;;;;;;;;;;5018450;28;20033;-61
2022/07/08 07:24:41;;;;;;;23.98;8.77;;;;;;;;;;5012482;28;20032;-61
2022/07/08 07:27:07;;;;;;;19.05;8.35;;;;;;;;;;5030955;28;20697;-60
2022/07/08 07:29:33;;;;;;;19.98;8.23;;;;;;;;;;5032703;28;20029;-61
2022/07/08 07:31:59;;;;;;;20.60;8.73;;;;;;;;;;5017103;28;20030;-61
2022/07/08 07:34:25;;;;;;;15.95;7.57;;;;;;;;;;5019625;28;20017;-60
2022/07/08 07:36:51;;;;;;;17.92;7.90;;;;;;;;;;5021007;28;20029;-60
2022/07/08 07:39:17;;;;;;;21.17;8.25;;;;;;;;;;5026854;28;20397;-62
2022/07/08 07:41:43;;;;;;;18.73;9.30;;;;;;;;;;5031827;28;20040;-65
2022/07/08 07:44:09;;;;;;;17.08;7.97;;;;;;;;;;5022080;28;20453;-61
2022/07/08 07:46:36;;;;;;;18.63;8.23;;;;;;;;;;5014907;28;20032;-60
2022/07/08 07:49:02;;;;;;;15.80;8.40;;;;;;;;;;5012201;28;20430;-56
2022/07/08 07:51:28;;;;;;;15.88;8.70;;;;;;;;;;5014865;28;20022;-59
2022/07/08 07:53:55;;;;;;;16.15;8.23;;;;;;;;;;5012143;28;20101;-59
2022/07/08 07:56:21;;;;;;;18.92;9.30;;;;;;;;;;5012508;28;20114;-58
2022/07/08 07:58:47;;;;;;;18.80;9.13;;;;;;;;;;5012480;28;20026;-63
2022/07/08 08:01:13;;;;;;;16.17;8.65;;;;;;;;;;5023469;28;20406;-63
2022/07/08 08:03:39;;;;;;;17.98;8.32;;;;;;;;;;5032158;28;20059;-62
2022/07/08 08:06:05;;;;;;;20.73;8.50;;;;;;;;;;5032083;28;20029;-62
2022/07/08 08:08:31;;;;;;;17.42;8.82;;;;;;;;;;5031721;28;20060;-63
2022/07/08 08:10:58;;;;;;;19.10;9.35;;;;;;;;;;5031987;28;20022;-62
2022/07/08 08:13:24;;;;;;;20.77;9.23;;;;;;;;;;5031752;28;20116;-63
2022/07/08 08:15:50;;;;;;;20.30;9.02;;;;;;;;;;5023066;28;20109;-59
2022/07/08 08:18:16;;;;;;;17.50;8.77;;;;;;;;;;5022512;28;20064;-60
2022/07/08 08:20:43;;;;;;;17.77;8.88;;;;;;;;;;4994694;28;20030;-62
2022/07/08 08:23:09;;;;;;;20.45;9.30;;;;;;;;;;5012266;28;20026;-65
2022/07/08 08:25:35;;;;;;;16.85;8.57;;;;;;;;;;5012272;28;20100;-66
2022/07/08 08:28:03;;;;;;;16.48;8.95;;;;;;;;;;5029885;28;20072;-68
2022/07/08 08:30:29;;;;;;;17.13;8.80;;;;;;;;;;5030868;28;20032;-68
2022/07/08 08:32:55;;;;;;;20.08;9.10;;;;;;;;;;5013319;28;20026;-68
2022/07/08 08:35:21;;;;;;;16.48;8.80;;;;;;;;;;5031013;28;20021;-68
2022/07/08 08:37:47;;;;;;;18.45;9.27;;;;;;;;;;5031486;28;20017;-68
2022/07/08 08:40:13;;;;;;;19.92;9.55;;;;;;;;;;5031397;28;20034;-67
2022/07/08 08:42:40;;;;;;;17.80;9.82;;;;;;;;;;5031262;28;20107;-68
2022/07/08 08:45:07;;;;;;;20.38;10.15;;;;;;;;;;5031308;28;20029;-67
2022/07/08 08:47:33;;;;;;;20.95;10.48;;;;;;;;;;5031658;28;20025;-68
2022/07/08 08:52:55;;;;;;;16.83;10.20;;;;;;;;;;5032686;28;20404;-67
2022/07/08 08:55:28;;;;;;;17.83;10.00;;;;;;;;;;5032617;28;20021;-67
2022/07/08 08:57:56;;;;;;;18.05;9.30;;;;;;;;;;5032399;28;20115;-67
2022/07/08 09:00:23;;;;;;;19.10;9.35;;;;;;;;;;5032145;28;20048;-67
2022/07/08 09:02:49;;;;;;;21.35;9.50;;;;;;;;;;5032474;28;20022;-67
2022/07/08 09:05:15;;;;;;;16.55;9.57;;;;;;;;;;5032471;28;20047;-67
2022/07/08 09:07:42;;;;;;;20.40;9.88;;;;;;;;;;5035334;28;20022;-68
2022/07/08 09:10:08;;;;;;;18.55;9.90;;;;;;;;;;5035733;28;20033;-68
2022/07/08 09:12:34;;;;;;;16.60;9.48;;;;;;;;;;5034669;28;20026;-68
2022/07/08 09:15:01;;;;;;;18.75;9.55;;;;;;;;;;5036231;28;20100;-69
2022/07/08 09:17:27;;;;;;;17.63;9.35;;;;;;;;;;5035820;28;20048;-68
2022/07/08 09:19:53;;;;;;;15.55;9.20;;;;;;;;;;5036185;28;20030;-68
2022/07/08 09:22:23;;;;;;;18.48;10.00;;;;;;;;;;5036063;28;20052;-69
2022/07/08 09:24:49;;;;;;;15.27;9.68;;;;;;;;;;5035887;28;20029;-69
2022/07/08 09:27:16;;;;;;;15.95;9.98;;;;;;;;;;5035207;28;20104;-65
2022/07/08 09:29:58;;;;;;;17.13;9.50;;;;;;;;;;5035084;28;20114;-64
2022/07/08 09:32:24;;;;;;;19.95;9.57;;;;;;;;;;5035168;28;20021;-64
2022/07/08 09:34:50;;;;;;;17.60;9.60;;;;;;;;;;5035522;28;20044;-64
2022/07/08 09:37:18;;;;;;;18.27;10.10;;;;;;;;;;5034369;28;20026;-65
2022/07/08 09:39:44;;;;;;;19.25;10.20;;;;;;;;;;5035407;28;20045;-64
2022/07/08 09:42:11;;;;;;;16.35;9.43;;;;;;;;;;5035277;28;20036;-63
2022/07/08 09:44:37;;;;;;;17.05;9.32;;;;;;;;;;5035105;28;20500;-63
2022/07/08 09:47:10;;;;;;;17.77;8.90;;;;;;;;;;5035026;28;20083;-63
2022/07/08 09:49:36;;;;;;;16.92;8.90;;;;;;;;;;5035327;28;20375;-63
2022/07/08 09:52:02;;;;;;;18.25;9.65;;;;;;;;;;5034706;28;20076;-63
2022/07/08 09:54:28;;;;;;;17.48;9.60;;;;;;;;;;5035992;28;20026;-63
2022/07/08 09:57:01;;;;;;;18.10;9.13;;;;;;;;;;5054845;28;20025;-63
2022/07/08 09:59:28;;;;;;;16.50;9.00;;;;;;;;;;5054582;28;20029;-66
2022/07/08 10:01:54;;;;;;;16.23;9.00;;;;;;;;;;5037112;28;20029;-67
2022/07/08 10:04:23;;;;;;;22.08;10.43;;;;;;;;;;5054817;28;20025;-67
2022/07/08 10:06:50;;;;;;;17.95;10.23;;;;;;;;;;5054820;28;20044;-66
2022/07/08 10:09:16;;;;;;;21.42;9.93;;;;;;;;;;5054240;28;20025;-67
2022/07/08 10:11:43;;;;;;;17.00;9.73;;;;;;;;;;5054607;28;20127;-67
2022/07/08 10:14:09;;;;;;;18.27;9.77;;;;;;;;;;5054965;28;20107;-67
2022/07/08 10:16:35;;;;;;;17.67;9.90;;;;;;;;;;5054089;28;20021;-67
2022/07/08 10:19:04;;;;;;;17.58;9.93;;;;;;;;;;5054097;28;20124;-67
2022/07/08 10:21:30;;;;;;;;;;;;;;;;;;5055009;28;20032;-67
2022/07/08 10:23:56;;;;;;;18.00;9.50;;;;;;;;;;5054927;28;19904;-67
2022/07/08 10:26:28;;;;;;;16.70;9.70;;;;;;;;;;5054356;28;20025;-67
2022/07/08 10:29:05;;;;;;;18.17;9.80;;;;;;;;;;5037600;28;20087;-67
2022/07/08 10:31:41;;;;;;;18.55;9.90;;;;;;;;;;5034310;28;20030;-68
2022/07/08 10:34:08;;;;;;;16.73;9.95;;;;;;;;;;5031135;28;20041;-67
2022/07/08 10:36:46;;;;;;;17.05;10.00;;;;;;;;;;5033024;28;20032;-67
2022/07/08 10:39:13;;;;;;;18.15;9.60;;;;;;;;;;5005119;28;20029;-68
2022/07/08 10:41:40;;;;;;;15.70;10.27;;;;;;;;;;5031538;28;20128;-64
2022/07/08 10:44:06;;;;;;;16.67;9.45;;;;;;;;;;5036186;28;20026;-65
2022/07/08 10:46:32;;;;;;;17.92;10.20;;;;;;;;;;5034493;28;20025;-65
2022/07/08 10:48:59;;;;;;;18.45;10.40;;;;;;;;;;5035673;28;20428;-66
2022/07/08 10:51:29;;;;;;;15.98;9.45;;;;;;;;;;5035873;28;20024;-65
2022/07/08 10:53:55;;;;;;;22.27;10.00;;;;;;;;;;5035862;28;20518;-67
2022/07/08 10:56:39;;;;;;;17.88;9.85;;;;;;;;;;5025639;28;20020;-67
2022/07/08 10:59:22;;;;;;;16.83;9.23;;;;;;;;;;5015085;28;20030;-67
2022/07/08 11:02:07;;;;;;;17.55;9.45;;;;;;;;;;5014428;28;20022;-66
2022/07/08 11:04:39;;;;;;;20.92;9.40;;;;;;;;;;5015142;28;20429;-66
2022/07/08 11:07:11;;;;;;;17.27;10.07;;;;;;;;;;5014328;28;20076;-64
2022/07/08 11:09:38;;;;;;;18.30;9.95;;;;;;;;;;5013979;28;20022;-64
2022/07/08 11:12:04;;;;;;;17.48;9.90;;;;;;;;;;5013574;28;20026;-63
2022/07/08 11:14:30;;;;;;;18.55;9.50;;;;;;;;;;5015804;28;20536;-64
2022/07/08 11:16:57;;;;;;;17.63;9.50;;;;;;;;;;5016991;28;20470;-65
2022/07/08 11:19:31;;;;;;;21.02;9.75;;;;;;;;;;5015663;28;20490;-64
2022/07/08 11:22:03;;;;;;;15.98;9.15;;;;;;;;;;5015486;28;20025;-63
2022/07/08 11:24:29;;;;;;;18.13;9.38;;;;;;;;;;5014984;28;20034;-63
2022/07/08 11:26:55;;;;;;;17.75;10.00;;;;;;;;;;5014484;28;20049;-63
2022/07/08 11:29:24;;;;;;;19.05;9.70;;;;;;;;;;5023463;28;20393;-63
2022/07/08 11:32:00;;;;;;;17.20;9.70;;;;;;;;;;5013772;28;20080;-62
2022/07/08 11:34:26;;;;;;;16.30;9.70;;;;;;;;;;5012378;28;20555;-63
2022/07/08 11:36:56;;;;;;;15.20;9.68;;;;;;;;;;5012305;28;20026;-62
2022/07/08 11:39:22;;;;;;;16.92;9.70;;;;;;;;;;5013732;28;20029;-63
2022/07/08 11:41:48;;;;;;;19.83;11.60;;;;;;;;;;5013512;28;20338;-63
2022/07/08 11:44:20;;;;;;;15.63;10.38;;;;;;;;;;5013633;28;20026;-61
2022/07/08 11:46:46;;;;;;;19.70;10.68;;;;;;;;;;5013156;28;20088;-62
2022/07/08 11:49:13;;;;;;;18.23;11.20;;;;;;;;;;5012398;28;20075;-63
2022/07/08 11:51:39;;;;;;;16.80;10.55;;;;;;;;;;5012908;28;20475;-62
2022/07/08 11:54:07;;;;;;;16.02;10.30;;;;;;;;;;5015640;28;20033;-59
2022/07/08 11:56:33;;;;;;;19.27;10.73;;;;;;;;;;5006142;28;20022;-60
2022/07/08 11:58:59;;;;;;;17.42;10.63;;;;;;;;;;5019078;28;20098;-61
2022/07/08 12:01:25;;;;;;;16.83;9.93;;;;;;;;;;5016573;28;20026;-61
2022/07/08 12:03:51;;;;;;;17.52;10.30;;;;;;;;;;5013559;28;20367;-62
2022/07/08 12:06:24;;;;;;;20.73;11.02;;;;;;;;;;5013643;28;20106;-61
2022/07/08 12:08:50;;;;;;;18.02;9.90;;;;;;;;;;5013123;28;20045;-62
2022/07/08 12:11:25;;;;;;;16.90;9.90;;;;;;;;;;5013116;28;20068;-63
2022/07/08 12:13:51;;;;;;;19.00;10.13;;;;;;;;;;5049958;23;20045;-58
2022/07/08 12:16:46;;;;;;;16.00;10.05;;;;;;;;;;5031699;28;20172;-59
2022/07/08 12:19:28;;;;;;;18.80;11.00;;;;;;;;;;5018987;28;20044;-58
2022/07/08 12:21:54;;;;;;;20.02;11.15;;;;;;;;;;5031957;28;20120;-62
2022/07/08 12:24:46;;;;;;;17.80;9.88;;;;;;;;;;5031701;28;20022;-59
2022/07/08 12:27:19;;;;;;;16.55;10.10;;;;;;;;;;5028838;28;20030;-60
2022/07/08 12:29:45;;;;;;;15.68;10.77;;;;;;;;;;5031734;28;20022;-59
2022/07/08 12:32:11;;;;;;;18.13;10.60;;;;;;;;;;5031807;28;20029;-60
2022/07/08 12:34:38;;;;;;;16.10;10.20;;;;;;;;;;5031953;28;20568;-60
2022/07/08 12:37:17;;;;;;;17.13;9.88;;;;;;;;;;5031542;28;20496;-61
2022/07/08 12:39:44;;;;;;;18.02;9.93;;;;;;;;;;5031712;28;20079;-61
2022/07/08 12:42:11;;;;;;;17.27;10.10;;;;;;;;;;5035661;28;20026;-61
2022/07/08 12:44:41;;;;;;;17.83;10.15;;;;;;;;;;5017721;28;20025;-58
2022/07/08 12:47:13;;;;;;;18.73;10.88;;;;;;;;;;5017862;28;20033;-62
2022/07/08 12:49:40;;;;;;;18.50;10.85;;;;;;;;;;5035540;28;20397;-59
2022/07/08 12:52:07;;;;;;;16.80;10.38;;;;;;;;;;5035405;28;20470;-61
2022/07/08 12:54:33;;;;;;;17.75;10.13;;;;;;;;;;5017770;28;20018;-57
2022/07/08 12:57:00;;;;;;;18.60;10.30;;;;;;;;;;5035457;28;20093;-60
2022/07/08 12:59:27;;;;;;;20.48;10.75;;;;;;;;;;5035411;28;20120;-60
2022/07/08 13:01:53;;;;;;;16.98;10.02;;;;;;;;;;5035168;28;20407;-55
2022/07/08 13:04:20;;;;;;;18.33;10.50;;;;;;;;;;5017669;28;20032;-58
2022/07/08 13:06:47;;;;;;;15.70;9.93;;;;;;;;;;5035411;28;20033;-56
2022/07/08 13:09:13;;;;;;;20.13;10.55;;;;;;;;;;5034937;28;20052;-57
2022/07/08 13:11:40;;;;;;;18.55;10.45;;;;;;;;;;5017528;28;20035;-61
2022/07/08 13:14:07;;;;;;;18.65;10.18;;;;;;;;;;5035112;28;20049;-56
2022/07/08 13:16:33;;;;;;;17.98;9.80;;;;;;;;;;5035212;28;20041;-60
2022/07/08 13:18:59;;;;;;;17.23;10.07;;;;;;;;;;5034880;28;20116;-60
2022/07/08 13:21:25;;;;;;;16.83;9.52;;;;;;;;;;5017464;28;20075;-62
2022/07/08 13:23:51;;;;;;;19.65;11.18;;;;;;;;;;5035085;28;20436;-62
2022/07/08 13:26:17;;;;;;;15.52;9.95;;;;;;;;;;5035067;28;20405;-62
2022/07/08 13:28:43;;;;;;;18.15;9.80;;;;;;;;;;5034157;28;20022;-63
2022/07/08 13:31:09;;;;;;;19.10;10.55;;;;;;;;;;5034482;28;20041;-61
2022/07/08 13:33:35;;;;;;;15.88;9.80;;;;;;;;;;5035044;28;20025;-60
2022/07/08 13:36:01;;;;;;;17.70;10.10;;;;;;;;;;5034806;28;20036;-62
2022/07/08 13:38:27;;;;;;;18.23;10.88;;;;;;;;;;5034432;28;20033;-61
2022/07/08 13:40:53;;;;;;;17.30;10.52;;;;;;;;;;5017105;28;20096;-61
2022/07/08 13:43:19;;;;;;;19.13;10.70;;;;;;;;;;5034648;28;20116;-63
2022/07/08 13:45:46;;;;;;;17.25;10.35;;;;;;;;;;5034500;28;20049;-60
2022/07/08 13:48:12;;;;;;;16.92;10.40;;;;;;;;;;5016292;28;20036;-62
2022/07/08 13:50:38;;;;;;;17.17;10.93;;;;;;;;;;5034484;28;20021;-62
2022/07/08 13:53:04;;;;;;;20.35;10.60;;;;;;;;;;5033662;28;20018;-61
2022/07/08 13:55:30;;;;;;;17.98;10.35;;;;;;;;;;5050005;28;20025;-62
2022/07/08 13:57:56;;;;;;;17.92;10.38;;;;;;;;;;5036245;28;20504;-63
2022/07/08 14:00:22;;;;;;;18.48;10.25;;;;;;;;;;5054076;28;20033;-62
2022/07/08 14:02:48;;;;;;;16.48;10.65;;;;;;;;;;5054391;28;20085;-60
2022/07/08 14:05:14;;;;;;;15.43;10.73;;;;;;;;;;5054265;28;20107;-61
2022/07/08 14:07:40;;;;;;;17.17;10.95;;;;;;;;;;5053412;28;20491;-59
2022/07/08 14:10:07;;;;;;;17.23;10.63;;;;;;;;;;5029832;28;20053;-62
2022/07/08 14:12:33;;;;;;;19.33;10.93;;;;;;;;;;5014342;28;20025;-61
2022/07/08 14:15:01;;;;;;;18.23;10.80;;;;;;;;;;5014356;28;20024;-60
2022/07/08 14:17:28;;;;;;;19.88;11.55;;;;;;;;;;5014398;28;20030;-59
2022/07/08 14:19:54;;;;;;;17.67;11.27;;;;;;;;;;4680712;28;9999615;-61
2022/07/08 14:22:20;;;;;;;16.48;10.88;;;;;;;;;;5013418;28;20029;-61
2022/07/08 14:24:46;;;;;;;19.17;10.70;;;;;;;;;;5031241;28;20021;-60
2022/07/08 14:27:12;;;;;;;16.98;10.40;;;;;;;;;;5026699;28;20041;-59
2022/07/08 14:29:38;;;;;;;16.52;10.68;;;;;;;;;;5030688;28;20021;-60
2022/07/08 14:32:04;;;;;;;18.40;10.98;;;;;;;;;;5031439;28;20087;-62
2022/07/08 14:34:32;;;;;;;18.30;10.82;;;;;;;;;;5013196;28;20029;-60